Time;durP1;ratioP1;P1;durP2;ratioP2;P2;SDS_P1;SDS_P2;PMS_P1;PMS_P2;Temp;Humidity;BMP_temperature;BMP_pressure;BME280_temperature;BME280_humidity;BME280_pressure;Samples;Min_cycle;Max_cycle;Signal;HPM_P1;HPM_P2
2022/05/31 00:00:23;;;;;;;2.60;0.90;;;15.90;34.70;;;;;;2585366;53;20912;-73
2022/05/31 00:02:50;;;;;;;1.92;0.80;;;15.90;34.60;;;;;;2340768;54;21004;-73
2022/05/31 00:05:17;;;;;;;2.47;1.17;;;15.80;34.80;;;;;;2338129;54;20956;-73
2022/05/31 00:07:43;;;;;;;2.22;0.77;;;15.80;34.80;;;;;;2399625;53;20952;-74
2022/05/31 00:10:12;;;;;;;2.20;0.80;;;15.80;34.90;;;;;;2406511;53;20958;-74
2022/05/31 00:12:41;;;;;;;2.42;0.95;;;15.70;35.00;;;;;;2346466;53;20904;-73
2022/05/31 00:15:08;;;;;;;2.62;0.85;;;15.70;35.00;;;;;;2424489;53;20956;-74
2022/05/31 00:17:35;;;;;;;1.70;0.70;;;15.60;34.90;;;;;;2339623;54;21854;-73
2022/05/31 00:20:06;;;;;;;2.15;0.75;;;15.60;34.90;;;;;;2555849;53;20964;-73
2022/05/31 00:22:37;;;;;;;1.83;0.70;;;15.60;35.10;;;;;;2340602;54;20948;-74
2022/05/31 00:25:04;;;;;;;3.12;1.10;;;15.50;35.20;;;;;;2458646;53;20944;-74
2022/05/31 00:27:30;;;;;;;1.60;0.60;;;15.50;35.30;;;;;;2341191;53;20928;-73
2022/05/31 00:29:57;;;;;;;1.80;0.75;;;15.40;35.30;;;;;;2340780;53;20948;-74
2022/05/31 00:32:28;;;;;;;1.25;0.60;;;15.40;35.30;;;;;;2340222;54;21682;-73
2022/05/31 00:34:55;;;;;;;2.08;0.80;;;15.40;35.40;;;;;;2341766;53;21898;-73
2022/05/31 00:37:22;;;;;;;2.00;0.70;;;15.30;35.30;;;;;;2346049;53;20903;-73
2022/05/31 00:39:48;;;;;;;2.20;0.80;;;15.30;35.40;;;;;;2340785;53;20959;-74
2022/05/31 00:42:17;;;;;;;1.20;0.60;;;15.30;35.50;;;;;;2339950;54;20983;-74
2022/05/31 00:44:44;;;;;;;1.98;0.77;;;15.20;35.60;;;;;;2340777;54;20913;-73
2022/05/31 00:47:25;;;;;;;1.52;0.80;;;15.20;35.60;;;;;;2340910;54;20908;-73
2022/05/31 00:50:04;;;;;;;2.10;0.73;;;15.20;35.80;;;;;;2340568;54;20921;-73
2022/05/31 00:52:45;;;;;;;1.60;0.70;;;15.20;35.90;;;;;;2343232;54;21003;-72
2022/05/31 00:55:35;;;;;;;1.42;0.73;;;15.10;35.90;;;;;;2447175;53;20983;-73
2022/05/31 00:58:07;;;;;;;2.17;0.75;;;15.10;36.20;;;;;;2340685;54;21796;-73
2022/05/31 01:00:36;;;;;;;1.50;0.60;;;15.10;35.90;;;;;;2346357;53;20951;-73
2022/05/31 01:03:03;;;;;;;1.65;0.60;;;15.00;35.90;;;;;;2341162;53;20995;-73
2022/05/31 01:05:29;;;;;;;2.20;0.95;;;15.00;36.00;;;;;;2339970;54;21409;-73
2022/05/31 01:07:55;;;;;;;2.75;0.73;;;15.00;36.00;;;;;;2340699;54;20932;-73
2022/05/31 01:10:22;;;;;;;4.43;1.15;;;15.00;36.10;;;;;;2344424;53;20951;-73
2022/05/31 01:12:51;;;;;;;2.25;0.90;;;14.90;36.10;;;;;;2341826;53;20956;-74
2022/05/31 01:15:20;;;;;;;2.05;0.75;;;14.90;36.40;;;;;;2516323;53;20931;-73
2022/05/31 01:17:50;;;;;;;2.33;0.82;;;14.90;36.50;;;;;;2586230;53;20987;-73
2022/05/31 01:20:18;;;;;;;2.35;0.77;;;14.90;36.50;;;;;;2339935;54;20976;-72
2022/05/31 01:22:50;;;;;;;1.62;0.77;;;14.90;36.60;;;;;;2341101;54;21008;-73
2022/05/31 01:26:58;;;;;;;2.12;0.90;;;14.80;36.70;;;;;;2346443;53;21027;-73
2022/05/31 01:29:27;;;;;;;2.45;0.77;;;14.80;37.00;;;;;;2339753;54;20968;-73
2022/05/31 01:32:01;;;;;;;1.87;0.70;;;14.80;36.50;;;;;;2340708;54;21031;-73
2022/05/31 01:38:34;;;;;;;2.70;0.90;;;14.80;36.70;;;;;;2340732;54;21349;-74
2022/05/31 01:41:19;;;;;;;1.67;0.60;;;14.80;36.90;;;;;;2345829;53;20955;-73
2022/05/31 01:43:48;;;;;;;1.58;0.60;;;14.70;36.50;;;;;;2340373;53;20992;-75
2022/05/31 01:46:19;;;;;;;2.00;0.60;;;14.70;36.60;;;;;;2340654;54;21008;-74
2022/05/31 01:48:45;;;;;;;1.90;0.90;;;14.70;36.80;;;;;;2340686;54;21496;-76
2022/05/31 01:51:12;;;;;;;1.83;0.90;;;14.60;36.90;;;;;;2340114;54;20928;-73
2022/05/31 01:53:38;;;;;;;2.10;0.80;;;14.60;37.00;;;;;;2340144;54;21409;-75
2022/05/31 01:56:05;;;;;;;2.08;0.90;;;14.50;37.10;;;;;;2382520;53;20932;-73
2022/05/31 01:58:35;;;;;;;2.12;0.80;;;14.50;37.20;;;;;;2339929;54;21032;-76
2022/05/31 02:01:01;;;;;;;1.58;0.73;;;14.50;37.20;;;;;;2340743;54;20971;-75
2022/05/31 02:03:28;;;;;;;2.42;0.90;;;14.50;37.20;;;;;;2340699;54;21359;-74
2022/05/31 02:05:55;;;;;;;1.65;0.68;;;14.50;37.30;;;;;;2340590;54;20976;-73
2022/05/31 02:08:22;;;;;;;2.08;0.70;;;14.40;37.30;;;;;;2340331;54;20952;-76
2022/05/31 02:10:48;;;;;;;1.95;0.80;;;14.40;37.40;;;;;;2340552;54;21793;-73
2022/05/31 02:13:16;;;;;;;1.90;0.82;;;14.40;37.40;;;;;;2345049;53;20928;-75
2022/05/31 02:15:42;;;;;;;2.83;0.90;;;14.40;37.50;;;;;;2341554;53;21012;-75
2022/05/31 02:18:09;;;;;;;2.20;0.82;;;14.40;37.50;;;;;;2344114;53;21507;-74
2022/05/31 02:20:35;;;;;;;2.95;1.00;;;14.30;37.60;;;;;;2342346;53;21500;-73
2022/05/31 02:23:03;;;;;;;2.58;1.17;;;14.30;37.60;;;;;;2346373;53;20897;-75
2022/05/31 02:25:29;;;;;;;2.28;0.95;;;14.20;37.60;;;;;;2586891;53;20949;-75
2022/05/31 02:27:55;;;;;;;2.87;1.08;;;14.20;37.70;;;;;;2369153;53;20988;-73
2022/05/31 02:30:22;;;;;;;3.08;1.10;;;14.20;37.70;;;;;;2340465;54;21457;-76
2022/05/31 02:32:48;;;;;;;2.15;1.00;;;14.20;37.80;;;;;;2340974;54;20937;-75
2022/05/31 02:35:15;;;;;;;3.20;1.05;;;14.10;37.80;;;;;;2371392;53;21568;-75
2022/05/31 02:37:41;;;;;;;2.25;0.85;;;14.10;37.90;;;;;;2580731;53;20948;-76
2022/05/31 02:40:10;;;;;;;1.98;0.80;;;14.10;38.20;;;;;;2345790;53;20996;-75
2022/05/31 02:42:37;;;;;;;1.98;0.82;;;14.00;38.10;;;;;;2343003;53;21012;-74
2022/05/31 02:45:07;;;;;;;2.87;1.02;;;14.10;38.20;;;;;;2389616;53;21087;-74
2022/05/31 02:47:34;;;;;;;3.08;1.02;;;14.00;38.20;;;;;;2340458;54;20976;-73
2022/05/31 02:50:00;;;;;;;2.50;1.00;;;13.90;38.20;;;;;;2509123;53;21015;-75
2022/05/31 02:52:27;;;;;;;1.58;0.70;;;13.90;38.30;;;;;;2342911;53;20936;-73
2022/05/31 02:54:57;;;;;;;3.67;0.98;;;13.90;38.40;;;;;;2424966;53;21008;-74
2022/05/31 02:57:23;;;;;;;2.20;1.00;;;13.80;38.30;;;;;;2344667;53;20943;-73
2022/05/31 02:59:49;;;;;;;1.60;0.80;;;13.80;38.40;;;;;;2343741;53;21020;-74
2022/05/31 03:02:15;;;;;;;2.30;0.95;;;13.80;38.50;;;;;;2341843;53;20936;-73
2022/05/31 03:04:42;;;;;;;2.17;0.95;;;13.80;38.40;;;;;;2344110;53;21015;-74
2022/05/31 03:07:10;;;;;;;2.45;1.00;;;13.70;38.50;;;;;;2344822;53;21098;-73
2022/05/31 03:09:37;;;;;;;1.90;0.80;;;13.70;38.70;;;;;;2339804;53;21027;-76
2022/05/31 03:12:05;;;;;;;2.15;0.93;;;13.70;38.70;;;;;;2344686;54;20985;-74
2022/05/31 03:16:23;;;;;;;2.50;1.10;;;13.60;38.90;;;;;;2342918;53;21877;-76
2022/05/31 03:19:02;;;;;;;2.58;1.00;;;13.60;39.90;;;;;;2340776;54;21004;-75
2022/05/31 03:21:32;;;;;;;2.12;0.90;;;13.60;39.20;;;;;;2340607;54;21007;-74
2022/05/31 03:24:02;;;;;;;2.42;0.90;;;13.50;39.00;;;;;;2341141;54;20935;-73
2022/05/31 03:26:29;;;;;;;1.48;0.60;;;13.50;39.00;;;;;;2428544;53;20940;-73
2022/05/31 03:28:55;;;;;;;2.10;0.90;;;13.50;39.00;;;;;;2429341;53;20926;-74
2022/05/31 03:31:21;;;;;;;1.85;0.90;;;13.50;39.00;;;;;;2341012;53;21024;-73
2022/05/31 03:33:48;;;;;;;1.95;0.88;;;13.40;39.00;;;;;;2587456;53;21373;-73
2022/05/31 03:36:15;;;;;;;3.05;0.98;;;13.40;39.10;;;;;;2444189;53;20920;-75
2022/05/31 03:38:41;;;;;;;1.77;0.80;;;13.30;39.10;;;;;;2340672;53;20932;-76
2022/05/31 03:41:08;;;;;;;2.58;1.10;;;13.30;39.20;;;;;;2340837;54;20944;-74
2022/05/31 03:43:35;;;;;;;2.30;1.10;;;13.30;39.50;;;;;;2345824;53;21875;-75
2022/05/31 03:46:01;;;;;;;3.22;1.30;;;13.20;39.50;;;;;;2353946;53;20890;-72
2022/05/31 03:48:37;;;;;;;2.12;0.98;;;13.20;39.50;;;;;;2342202;53;21412;-74
2022/05/31 03:51:05;;;;;;;3.25;1.05;;;13.20;40.00;;;;;;2346144;53;20907;-74
2022/05/31 03:53:31;;;;;;;2.22;1.05;;;13.10;39.70;;;;;;2340942;53;21585;-75
2022/05/31 03:56:03;;;;;;;2.95;1.12;;;13.10;39.70;;;;;;2340508;54;20988;-75
2022/05/31 03:58:29;;;;;;;1.95;0.90;;;13.00;39.80;;;;;;2571258;53;20929;-73
2022/05/31 04:00:56;;;;;;;3.05;1.05;;;13.00;39.90;;;;;;2345447;53;21113;-74
2022/05/31 04:03:23;;;;;;;3.55;1.10;;;13.00;40.00;;;;;;2347440;53;21431;-76
2022/05/31 04:05:49;;;;;;;2.20;1.02;;;13.00;40.30;;;;;;2342257;53;20940;-73
2022/05/31 04:08:20;;;;;;;2.22;0.90;;;12.90;40.40;;;;;;2345838;53;20975;-74
2022/05/31 04:10:46;;;;;;;1.83;0.90;;;13.00;40.50;;;;;;2409847;53;20960;-74
2022/05/31 04:13:13;;;;;;;2.17;1.00;;;12.90;40.30;;;;;;2340654;54;21099;-76
2022/05/31 04:15:39;;;;;;;2.12;0.90;;;12.90;40.30;;;;;;2340347;54;20992;-75
2022/05/31 04:18:06;;;;;;;2.28;1.00;;;12.90;40.30;;;;;;2340594;54;21449;-76
2022/05/31 04:20:33;;;;;;;3.15;1.00;;;12.90;40.40;;;;;;2340311;54;20937;-73
2022/05/31 04:25:44;;;;;;;2.70;1.10;;;12.90;40.50;;;;;;2343726;53;21066;-74
2022/05/31 04:28:10;;;;;;;2.03;0.80;;;12.90;40.50;;;;;;2340750;53;21020;-73
2022/05/31 04:30:37;;;;;;;2.67;1.20;;;12.90;40.70;;;;;;2341208;54;21080;-76
2022/05/31 04:33:04;;;;;;;2.47;1.12;;;12.90;40.70;;;;;;2341107;54;20992;-74
2022/05/31 04:35:31;;;;;;;3.10;1.15;;;12.90;40.90;;;;;;2340593;53;21430;-74
2022/05/31 04:37:59;;;;;;;2.90;1.10;;;12.90;41.10;;;;;;2344843;53;21042;-75
2022/05/31 04:40:27;;;;;;;2.10;0.90;;;13.00;41.30;;;;;;2341968;53;20944;-73
2022/05/31 04:42:53;;;;;;;2.75;0.95;;;12.90;41.30;;;;;;2543939;53;20955;-74
2022/05/31 04:45:19;;;;;;;1.85;0.93;;;13.00;41.30;;;;;;2378895;53;20927;-74
2022/05/31 04:47:46;;;;;;;1.83;0.80;;;13.00;41.30;;;;;;2342476;53;21396;-76
2022/05/31 04:50:12;;;;;;;3.33;1.45;;;13.00;41.30;;;;;;2340573;54;20936;-76
2022/05/31 04:52:38;;;;;;;1.87;0.90;;;13.10;41.40;;;;;;2346984;53;20903;-73
2022/05/31 04:55:09;;;;;;;2.35;0.90;;;13.20;41.50;;;;;;2439478;53;20948;-76
2022/05/31 04:57:38;;;;;;;1.90;0.82;;;13.10;41.40;;;;;;2325399;54;21032;-74
2022/05/31 05:00:06;;;;;;;1.98;0.85;;;13.10;41.50;;;;;;2340984;54;20956;-75
2022/05/31 05:02:33;;;;;;;2.60;1.08;;;13.20;41.60;;;;;;2345208;53;20936;-74
2022/05/31 05:04:59;;;;;;;2.90;1.40;;;13.20;41.70;;;;;;2341223;54;21002;-74
2022/05/31 05:07:28;;;;;;;4.18;1.30;;;13.20;41.70;;;;;;2340668;54;20940;-73
2022/05/31 05:09:54;;;;;;;2.33;1.00;;;13.20;41.90;;;;;;2391412;53;21062;-74
2022/05/31 05:12:20;;;;;;;3.00;1.10;;;13.30;41.90;;;;;;2338358;53;20987;-73
2022/05/31 05:14:47;;;;;;;2.60;0.90;;;13.30;41.90;;;;;;2422903;53;20956;-73
2022/05/31 05:17:14;;;;;;;2.72;1.00;;;13.30;41.90;;;;;;2340786;54;21445;-73
2022/05/31 05:19:40;;;;;;;2.28;1.10;;;13.40;42.00;;;;;;2341009;54;21103;-73
2022/05/31 05:22:06;;;;;;;2.20;0.90;;;13.40;42.00;;;;;;2447962;53;20955;-73
2022/05/31 05:24:32;;;;;;;2.20;1.10;;;13.40;42.00;;;;;;2341057;53;20994;-72
2022/05/31 05:26:59;;;;;;;2.17;0.88;;;13.50;42.20;;;;;;2340715;53;20944;-73
2022/05/31 05:32:10;;;;;;;2.45;1.00;;;13.50;42.30;;;;;;2587289;53;21007;-73
2022/05/31 05:34:36;;;;;;;2.17;0.95;;;13.60;42.40;;;;;;2341146;54;20932;-73
2022/05/31 05:37:03;;;;;;;2.30;1.00;;;13.60;42.40;;;;;;2341132;54;21015;-73
2022/05/31 05:39:32;;;;;;;2.70;1.05;;;13.70;42.40;;;;;;2348650;53;20931;-73
2022/05/31 05:42:02;;;;;;;2.87;0.98;;;13.70;42.50;;;;;;2340106;53;21007;-74
2022/05/31 05:44:31;;;;;;;3.25;1.08;;;13.80;42.60;;;;;;2460701;53;20960;-74
2022/05/31 05:46:58;;;;;;;3.15;1.00;;;13.80;42.80;;;;;;2340455;54;20968;-74
2022/05/31 05:49:25;;;;;;;1.92;0.80;;;13.80;43.40;;;;;;2343912;54;20916;-75
2022/05/31 05:51:55;;;;;;;1.90;0.93;;;13.90;43.00;;;;;;2479816;53;21827;-76
2022/05/31 05:54:21;;;;;;;2.53;1.02;;;13.90;43.00;;;;;;2348402;53;20963;-75
2022/05/31 05:56:48;;;;;;;2.37;0.95;;;14.00;43.10;;;;;;2383781;53;20981;-74
2022/05/31 05:59:14;;;;;;;1.95;0.95;;;14.00;43.10;;;;;;2340555;54;21389;-77
2022/05/31 06:01:47;;;;;;;2.53;1.10;;;14.10;43.20;;;;;;2402124;53;21004;-73
2022/05/31 06:08:05;;;;;;;4.47;1.15;;;14.30;43.90;;;;;;2341256;54;21047;-74
2022/05/31 06:10:45;;;;;;;3.28;1.02;;;14.30;43.50;;;;;;2340029;54;20964;-74
2022/05/31 06:13:19;;;;;;;2.53;0.95;;;14.40;43.70;;;;;;2340500;54;20987;-73
2022/05/31 06:15:48;;;;;;;2.15;0.90;;;14.50;43.80;;;;;;2325536;54;21020;-74
2022/05/31 06:18:18;;;;;;;3.83;1.30;;;14.60;43.70;;;;;;2340626;54;20959;-74
2022/05/31 06:20:47;;;;;;;1.77;0.88;;;14.60;43.70;;;;;;2340905;54;21523;-74
2022/05/31 06:23:13;;;;;;;2.10;1.02;;;14.70;43.80;;;;;;2340794;54;21035;-73
2022/05/31 06:25:40;;;;;;;2.65;1.10;;;14.80;43.80;;;;;;2341042;54;20979;-77
2022/05/31 06:28:08;;;;;;;2.83;1.23;;;14.80;43.80;;;;;;2341528;54;20932;-74
2022/05/31 06:30:34;;;;;;;2.87;1.33;;;14.90;44.00;;;;;;2346195;53;20927;-75
2022/05/31 06:33:00;;;;;;;2.15;1.05;;;15.00;43.90;;;;;;2341130;53;21056;-76
2022/05/31 06:35:26;;;;;;;2.37;1.05;;;15.10;44.00;;;;;;2339854;54;21043;-75
2022/05/31 06:37:55;;;;;;;2.80;1.30;;;15.20;44.10;;;;;;2340376;54;20995;-76
2022/05/31 06:40:21;;;;;;;2.45;1.10;;;15.20;44.10;;;;;;2431298;53;20975;-75
2022/05/31 06:42:48;;;;;;;2.53;0.93;;;15.30;44.10;;;;;;2438950;53;21010;-75
2022/05/31 06:45:16;;;;;;;2.12;0.90;;;15.40;44.10;;;;;;2340704;54;21720;-78
2022/05/31 06:47:42;;;;;;;3.58;1.27;;;15.50;44.20;;;;;;2340956;54;20991;-75
2022/05/31 06:50:09;;;;;;;5.25;1.77;;;15.60;44.20;;;;;;2340875;54;20999;-74
2022/05/31 06:58:04;;;;;;;2.42;1.23;;;15.90;44.50;;;;;;2399154;53;20948;-73
2022/05/31 07:00:31;;;;;;;3.67;1.50;;;16.00;44.60;;;;;;2339979;54;21448;-74
2022/05/31 07:02:59;;;;;;;3.35;1.40;;;16.10;44.70;;;;;;2357859;53;20955;-77
2022/05/31 07:05:25;;;;;;;2.30;1.10;;;16.20;44.80;;;;;;2339760;53;20940;-74
2022/05/31 07:07:52;;;;;;;3.90;1.20;;;16.30;44.90;;;;;;2341045;54;20940;-74
2022/05/31 07:10:18;;;;;;;2.10;1.00;;;16.50;45.00;;;;;;2340802;54;21381;-75
2022/05/31 07:12:45;;;;;;;3.30;0.93;;;16.60;44.90;;;;;;2340709;54;20936;-74
2022/05/31 07:15:11;;;;;;;2.75;0.90;;;16.70;44.90;;;;;;2340570;54;21040;-74
2022/05/31 07:17:37;;;;;;;1.92;0.90;;;16.80;44.80;;;;;;2585798;53;21071;-75
2022/05/31 07:20:05;;;;;;;4.82;1.20;;;16.90;44.60;;;;;;2340695;54;21056;-75
2022/05/31 07:22:33;;;;;;;3.83;1.00;;;17.00;44.40;;;;;;2340429;54;20948;-75
2022/05/31 07:25:01;;;;;;;3.75;1.30;;;17.10;44.30;;;;;;2340593;54;20940;-75
2022/05/31 07:27:27;;;;;;;2.10;1.10;;;17.30;44.30;;;;;;2339867;54;20945;-75
2022/05/31 07:29:54;;;;;;;2.28;1.00;;;17.30;44.10;;;;;;2340593;54;20939;-76
2022/05/31 07:32:23;;;;;;;3.08;1.00;;;17.40;44.00;;;;;;2328097;54;21828;-75
2022/05/31 07:35:19;;;;;;;2.37;0.98;;;17.50;43.90;;;;;;2341137;53;21703;-75
2022/05/31 07:37:46;;;;;;;2.00;0.85;;;17.70;44.00;;;;;;2343687;53;21094;-75
2022/05/31 07:40:12;;;;;;;1.60;0.70;;;17.80;44.30;;;;;;2343901;53;20963;-74
2022/05/31 07:42:38;;;;;;;2.30;1.10;;;17.80;44.00;;;;;;2465627;53;20996;-77
2022/05/31 07:45:06;;;;;;;2.22;1.12;;;18.00;44.20;;;;;;2338303;53;21007;-75
2022/05/31 07:47:33;;;;;;;2.85;1.17;;;18.00;44.10;;;;;;2386813;53;20947;-78
2022/05/31 07:49:59;;;;;;;2.78;1.05;;;18.20;44.20;;;;;;2346753;53;20903;-76
2022/05/31 07:52:26;;;;;;;2.33;1.05;;;18.20;44.20;;;;;;2340318;53;21464;-77
2022/05/31 07:54:53;;;;;;;2.20;0.98;;;18.30;44.10;;;;;;2340320;54;21039;-75
2022/05/31 08:00:05;;;;;;;2.85;1.05;;;18.50;44.00;;;;;;2509017;53;21009;-78
2022/05/31 08:02:31;;;;;;;2.58;0.93;;;18.60;43.90;;;;;;2340553;54;21724;-76
2022/05/31 08:05:00;;;;;;;2.85;1.00;;;18.80;44.00;;;;;;2343281;53;21005;-75
2022/05/31 08:07:26;;;;;;;2.53;0.88;;;18.80;43.90;;;;;;2585765;53;21005;-75
2022/05/31 08:09:52;;;;;;;2.33;1.02;;;18.90;44.00;;;;;;2342946;53;20979;-75
2022/05/31 08:12:18;;;;;;;2.25;0.90;;;19.00;44.00;;;;;;2340235;53;21655;-75
2022/05/31 08:14:48;;;;;;;2.75;1.00;;;19.10;43.90;;;;;;2340970;53;20944;-74
2022/05/31 08:17:14;;;;;;;2.35;0.90;;;19.30;43.90;;;;;;2372915;53;21644;-78
2022/05/31 08:19:42;;;;;;;2.22;0.88;;;19.30;43.70;;;;;;2346593;53;21483;-75
2022/05/31 08:22:11;;;;;;;2.53;1.00;;;19.40;43.70;;;;;;2342088;53;21208;-73
2022/05/31 08:24:41;;;;;;;1.83;0.90;;;19.60;43.80;;;;;;2339825;53;20932;-73
2022/05/31 08:27:08;;;;;;;2.35;1.20;;;19.70;43.70;;;;;;2590044;53;21754;-72
2022/05/31 08:29:35;;;;;;;2.72;1.00;;;19.80;43.60;;;;;;2345014;53;21003;-74
2022/05/31 08:32:01;;;;;;;2.95;0.90;;;19.90;43.60;;;;;;2342189;53;20936;-73
2022/05/31 08:34:29;;;;;;;2.08;0.93;;;20.00;43.50;;;;;;2339545;53;21023;-73
2022/05/31 08:36:55;;;;;;;2.90;0.93;;;20.10;43.40;;;;;;2340694;54;20995;-76
2022/05/31 08:39:22;;;;;;;3.15;0.93;;;20.20;43.20;;;;;;2363664;53;21008;-75
2022/05/31 08:41:50;;;;;;;2.30;0.85;;;20.40;43.20;;;;;;2340594;54;21012;-74
2022/05/31 08:45:18;;;;;;;2.17;1.00;;;20.40;43.00;;;;;;2344880;53;21693;-73
2022/05/31 08:47:46;;;;;;;1.73;0.90;;;20.60;43.00;;;;;;2324351;54;21023;-73
2022/05/31 08:53:19;;;;;;;3.40;0.85;;;20.80;42.60;;;;;;2588141;53;20921;-76
2022/05/31 08:59:11;;;;;;;1.87;0.65;;;21.00;42.60;;;;;;2345986;53;20971;-74
2022/05/31 09:01:40;;;;;;;1.48;0.50;;;21.20;42.60;;;;;;2339768;54;21464;-73
2022/05/31 09:04:16;;;;;;;1.92;0.70;;;21.30;42.60;;;;;;2339652;54;21007;-76
2022/05/31 09:06:50;;;;;;;4.15;0.82;;;21.40;42.30;;;;;;2339496;54;20972;-73
2022/05/31 09:09:26;;;;;;;1.33;0.70;;;21.50;42.40;;;;;;2341115;54;20912;-73
2022/05/31 09:12:33;;;;;;;3.17;0.90;;;21.60;42.30;;;;;;2339625;54;21000;-73
2022/05/31 09:20:10;;;;;;;2.12;0.77;;;21.70;42.00;;;;;;2339788;54;21625;-73
2022/05/31 09:22:38;;;;;;;1.87;0.73;;;21.90;42.20;;;;;;2348251;53;20963;-73
2022/05/31 09:25:05;;;;;;;1.98;0.70;;;22.20;41.90;;;;;;2511433;53;20948;-75
2022/05/31 09:27:47;;;;;;;1.60;0.60;;;22.30;41.70;;;;;;2339866;54;20952;-73
2022/05/31 09:30:49;;;;;;;1.73;0.70;;;22.40;41.50;;;;;;2347606;53;20928;-76
2022/05/31 09:33:32;;;;;;;2.58;0.80;;;22.40;41.50;;;;;;2324468;54;20968;-73
2022/05/31 09:36:42;;;;;;;2.50;0.80;;;22.60;41.20;;;;;;2339838;54;20936;-74
2022/05/31 09:39:29;;;;;;;1.52;0.68;;;22.70;41.10;;;;;;2346004;53;20979;-72
2022/05/31 09:42:14;;;;;;;2.55;1.00;;;22.80;41.10;;;;;;2345218;53;20942;-73
2022/05/31 09:44:44;;;;;;;2.47;1.00;;;22.80;40.80;;;;;;2340325;53;20980;-74
2022/05/31 09:47:27;;;;;;;2.60;0.80;;;22.90;40.90;;;;;;2340481;54;21429;-72
2022/05/31 09:49:53;;;;;;;1.50;0.70;;;23.00;40.10;;;;;;2339715;53;21030;-73
2022/05/31 09:52:43;;;;;;;1.58;0.70;;;23.00;40.20;;;;;;2585726;53;20995;-75
2022/05/31 09:58:37;;;;;;;2.67;0.70;;;23.20;39.80;;;;;;2340184;54;21027;-75
2022/05/31 10:01:05;;;;;;;2.55;0.85;;;23.20;39.30;;;;;;2339657;53;20999;-75
2022/05/31 10:03:40;;;;;;;2.37;0.60;;;23.30;39.80;;;;;;2339817;54;21004;-72
2022/05/31 10:06:18;;;;;;;1.50;0.70;;;23.40;39.60;;;;;;2339831;54;20936;-74
2022/05/31 10:08:49;;;;;;;2.25;0.77;;;23.30;39.20;;;;;;2340215;54;21264;-74
2022/05/31 10:11:23;;;;;;;2.12;0.80;;;23.40;39.40;;;;;;2349439;53;21023;-74
2022/05/31 10:13:57;;;;;;;2.85;0.80;;;23.50;39.10;;;;;;2341871;53;21808;-75
2022/05/31 10:16:31;;;;;;;3.42;1.08;;;23.60;38.80;;;;;;2349966;53;20943;-73
2022/05/31 10:18:59;;;;;;;2.55;0.80;;;23.60;38.70;;;;;;2342453;53;20944;-73
2022/05/31 10:21:37;;;;;;;2.10;0.80;;;23.70;38.90;;;;;;2339821;54;20992;-72
2022/05/31 10:24:20;;;;;;;1.45;0.50;;;23.80;38.80;;;;;;2340078;54;21710;-72
2022/05/31 10:27:07;;;;;;;1.15;0.50;;;23.80;38.40;;;;;;2340267;54;20932;-72
2022/05/31 10:30:09;;;;;;;1.20;0.52;;;23.90;38.60;;;;;;2339726;54;20998;-73
2022/05/31 10:32:42;;;;;;;1.23;0.47;;;23.90;37.90;;;;;;2340032;54;20951;-72
2022/05/31 10:35:24;;;;;;;1.48;0.50;;;24.10;37.30;;;;;;2587886;53;20947;-72
2022/05/31 10:38:09;;;;;;;1.20;0.50;;;24.20;37.10;;;;;;2341208;53;21064;-72
2022/05/31 10:41:00;;;;;;;2.12;0.73;;;24.20;37.00;;;;;;2339716;54;20928;-73
2022/05/31 10:43:37;;;;;;;1.62;0.62;;;24.30;36.50;;;;;;2584937;53;20928;-73
2022/05/31 10:46:07;;;;;;;1.12;0.50;;;24.40;36.90;;;;;;2335608;53;20983;-73
2022/05/31 10:48:34;;;;;;;1.48;0.57;;;24.50;36.70;;;;;;2586899;53;20920;-75
2022/05/31 10:55:51;;;;;;;1.48;0.50;;;24.60;35.80;;;;;;2337067;54;20931;-72
2022/05/31 10:59:07;;;;;;;1.10;0.50;;;24.80;35.70;;;;;;2339681;54;21055;-73
2022/05/31 11:12:56;;;;;;;3.00;1.00;;;25.10;35.80;;;;;;2295888;54;1323823;-73
2022/05/31 11:15:48;;;;;;;2.22;0.80;;;25.10;34.20;;;;;;2338523;53;20936;-73
2022/05/31 11:19:59;;;;;;;3.12;0.60;;;25.20;34.50;;;;;;2339717;53;21071;-73
2022/05/31 11:22:49;;;;;;;1.60;0.90;;;25.30;34.60;;;;;;2344517;53;21019;-73
2022/05/31 11:26:53;;;;;;;1.20;0.45;;;25.50;34.60;;;;;;2353090;53;20948;-73
2022/05/31 11:29:48;;;;;;;3.10;0.65;;;25.50;34.00;;;;;;2378102;53;20940;-72
2022/05/31 11:32:34;;;;;;;1.05;0.50;;;25.60;34.20;;;;;;2585652;53;20923;-73
2022/05/31 11:35:15;;;;;;;0.90;0.40;;;25.60;33.70;;;;;;2340700;54;20976;-73
2022/05/31 11:38:22;;;;;;;1.00;0.50;;;25.70;34.00;;;;;;2340375;54;20940;-73
2022/05/31 11:41:19;;;;;;;2.37;0.57;;;25.70;33.90;;;;;;2341308;53;21150;-73
2022/05/31 11:44:29;;;;;;;3.37;0.40;;;25.80;33.30;;;;;;2340283;54;20977;-76
2022/05/31 11:47:19;;;;;;;1.52;0.55;;;25.90;33.20;;;;;;2502754;53;21342;-72
2022/05/31 11:54:35;;;;;;;3.10;0.65;;;25.90;33.20;;;;;;2585111;53;21433;-72
2022/05/31 11:57:38;;;;;;;1.00;0.40;;;26.00;33.40;;;;;;2460144;53;21448;-71
2022/05/31 12:00:08;;;;;;;1.05;0.40;;;26.20;32.90;;;;;;2585851;53;20940;-73
2022/05/31 12:02:55;;;;;;;1.73;0.50;;;26.20;33.20;;;;;;2341267;54;21480;-73
2022/05/31 12:05:33;;;;;;;1.65;0.60;;;26.20;32.60;;;;;;2588693;53;21535;-73
2022/05/31 12:08:20;;;;;;;1.20;0.40;;;26.20;32.80;;;;;;2586685;53;20939;-71
2022/05/31 12:10:51;;;;;;;1.37;0.47;;;26.30;32.70;;;;;;2586307;53;21666;-73
2022/05/31 12:13:18;;;;;;;1.25;0.52;;;26.30;33.00;;;;;;2340024;54;20908;-72
2022/05/31 12:15:50;;;;;;;2.28;0.80;;;26.40;33.10;;;;;;2340681;54;20956;-72
2022/05/31 12:21:07;;;;;;;1.58;0.60;;;26.40;32.70;;;;;;2340246;54;20996;-73
2022/05/31 12:24:38;;;;;;;1.20;0.40;;;26.50;32.00;;;;;;2350885;53;21462;-71
2022/05/31 12:27:29;;;;;;;2.35;0.57;;;26.70;32.50;;;;;;2341555;54;21472;-71
2022/05/31 12:30:07;;;;;;;2.35;0.60;;;26.80;32.10;;;;;;2489157;53;20951;-72
2022/05/31 12:32:54;;;;;;;1.35;0.50;;;26.80;32.30;;;;;;2342924;53;20956;-75
2022/05/31 12:37:13;;;;;;;1.33;0.60;;;26.80;31.80;;;;;;2339552;53;20935;-73
2022/05/31 12:39:42;;;;;;;1.67;0.68;;;27.00;32.40;;;;;;2346040;53;20962;-72
2022/05/31 12:42:31;;;;;;;2.17;0.73;;;27.00;32.30;;;;;;2341960;53;20916;-71
2022/05/31 12:46:00;;;;;;;1.73;0.60;;;27.00;31.60;;;;;;2341548;54;20996;-72
2022/05/31 12:48:27;;;;;;;0.95;0.40;;;27.10;31.40;;;;;;2587009;53;20945;-71
2022/05/31 12:51:19;;;;;;;2.17;0.80;;;27.20;31.90;;;;;;2345296;53;21003;-72
2022/05/31 12:53:58;;;;;;;1.55;0.60;;;27.20;31.40;;;;;;2325947;54;21011;-72
2022/05/31 12:56:57;;;;;;;2.05;0.68;;;27.20;31.70;;;;;;2586397;53;21409;-71
2022/05/31 12:59:45;;;;;;;1.08;0.50;;;27.30;31.50;;;;;;2340886;54;21052;-72
2022/05/31 13:02:25;;;;;;;1.37;0.60;;;27.30;31.60;;;;;;2340960;54;20976;-72
2022/05/31 13:04:55;;;;;;;2.10;0.70;;;27.30;31.80;;;;;;2341618;54;21445;-71
2022/05/31 13:07:52;;;;;;;1.52;0.70;;;27.40;31.90;;;;;;2340755;54;21019;-72
2022/05/31 13:10:35;;;;;;;2.12;0.60;;;27.50;31.70;;;;;;2325817;54;20980;-72
2022/05/31 13:21:29;;;;;;;1.25;0.50;;;27.70;31.20;;;;;;2352465;53;21031;-71
2022/05/31 13:24:14;;;;;;;2.50;0.50;;;27.90;31.30;;;;;;2347314;53;20959;-72
2022/05/31 13:26:40;;;;;;;1.48;0.60;;;28.00;31.20;;;;;;2341243;53;21050;-71
2022/05/31 13:29:08;;;;;;;2.47;0.70;;;28.00;30.90;;;;;;2347727;53;21391;-72
2022/05/31 13:32:03;;;;;;;1.77;0.73;;;28.10;30.90;;;;;;2348396;53;21004;-71
2022/05/31 13:34:36;;;;;;;1.15;0.57;;;28.20;30.30;;;;;;2340960;54;21479;-72
2022/05/31 13:37:03;;;;;;;;;;;28.20;30.50;;;;;;2344541;54;20972;-71
2022/05/31 13:39:32;;;;;;;1.52;0.60;;;28.30;30.70;;;;;;2340601;53;20066;-71
2022/05/31 13:42:01;;;;;;;3.17;0.60;;;28.40;30.60;;;;;;2452303;53;21027;-71
2022/05/31 13:44:35;;;;;;;1.87;0.60;;;28.40;30.20;;;;;;2346103;53;20968;-72
2022/05/31 13:47:03;;;;;;;1.50;0.60;;;28.50;30.00;;;;;;2342891;53;20941;-71
2022/05/31 13:49:39;;;;;;;1.17;0.45;;;28.50;30.00;;;;;;2587444;53;21301;-74
2022/05/31 13:52:29;;;;;;;2.05;0.75;;;28.50;30.00;;;;;;2341167;54;20963;-72
2022/05/31 13:55:05;;;;;;;1.90;0.60;;;28.60;29.80;;;;;;2588850;53;21063;-72
2022/05/31 13:57:32;;;;;;;1.95;0.60;;;28.60;30.00;;;;;;2342066;53;20975;-73
2022/05/31 13:59:59;;;;;;;1.50;0.50;;;28.60;29.80;;;;;;2478787;53;20928;-71
2022/05/31 14:06:28;;;;;;;1.33;0.50;;;28.70;29.20;;;;;;2485484;53;20996;-72
2022/05/31 14:08:56;;;;;;;1.48;0.47;;;28.70;29.20;;;;;;2345640;53;20919;-73
2022/05/31 14:12:08;;;;;;;1.12;0.60;;;28.70;29.40;;;;;;2387462;53;21003;-71
2022/05/31 14:14:50;;;;;;;1.57;0.53;;;28.70;29.30;;;;;;2347027;53;21242;-73
2022/05/31 14:17:35;;;;;;;1.83;0.60;;;28.70;29.20;;;;;;2561064;53;20987;-71
2022/05/31 14:20:16;;;;;;;2.87;0.70;;;28.70;28.80;;;;;;2341335;54;20924;-74
2022/05/31 14:22:44;;;;;;;1.75;0.60;;;28.70;29.10;;;;;;2344373;53;20915;-71
2022/05/31 14:25:10;;;;;;;1.65;0.70;;;28.70;29.00;;;;;;2342006;53;21012;-71
2022/05/31 14:27:39;;;;;;;2.05;0.57;;;28.70;28.80;;;;;;2341057;54;20952;-73
2022/05/31 14:30:26;;;;;;;1.98;0.68;;;28.70;28.70;;;;;;2377022;53;20936;-73
2022/05/31 14:33:00;;;;;;;2.42;0.60;;;28.70;28.60;;;;;;2341141;54;21520;-71
2022/05/31 14:35:48;;;;;;;1.75;0.50;;;28.70;28.80;;;;;;2345624;53;20918;-73